ADDS METAR Data

Data at: 0531 UTC 19 Jan 2018

METAR for:KPVD (Providence/Green Mem, RI, US)
Text:KPVD 190451Z 29011KT 10SM CLR M05/M09 A2997 RMK AO2 SLP149 LAST T10501089 400111067
Temperature: -5.0°C ( 23°F)
Dewpoint: -8.9°C ( 16°F) [RH = 74%]
Pressure (altimeter):29.97 inches Hg (1015.0 mb) [Sea level pressure: 1014.9 mb]
Winds:from the WNW (290 degrees) at 13 MPH (11 knots; 5.7 m/s)
Visibility:10 or more sm (16+ km)
Ceiling:at least 12,000 feet AGL
Clouds:sky clear below 12,000 feet AGL